createdAt,value
2023-04-06T00:01:09.637Z,2.17
2023-04-06T00:03:36.819Z,2.33
2023-04-06T00:06:05.214Z,2.50
2023-04-06T00:08:32.221Z,2.83
2023-04-06T00:10:59.394Z,2.72
2023-04-06T00:13:26.410Z,2.42
2023-04-06T00:15:53.600Z,2.50
2023-04-06T00:18:20.786Z,2.17
2023-04-06T00:20:47.915Z,1.75
2023-04-06T00:23:15.007Z,2.83
2023-04-06T00:25:42.283Z,2.60
2023-04-06T00:28:09.369Z,2.58
2023-04-06T00:30:36.368Z,2.55
2023-04-06T00:33:03.564Z,2.22
2023-04-06T00:35:30.805Z,2.85
2023-04-06T00:37:57.822Z,3.15
2023-04-06T00:40:25.004Z,2.55
2023-04-06T00:42:52.057Z,2.90
2023-04-06T00:45:19.480Z,3.13
2023-04-06T00:47:46.679Z,2.88
2023-04-06T00:50:14.234Z,3.65
2023-04-06T00:52:41.352Z,2.70
2023-04-06T00:55:11.107Z,3.17
2023-04-06T00:57:42.145Z,2.25
2023-04-06T01:00:12.566Z,3.13
2023-04-06T01:02:40.413Z,2.30
2023-04-06T01:05:08.923Z,3.30
2023-04-06T01:07:46.971Z,2.90
2023-04-06T01:10:28.528Z,2.53
2023-04-06T01:13:12.957Z,2.78
2023-04-06T01:15:55.471Z,3.20
2023-04-06T01:18:32.251Z,3.10
2023-04-06T01:21:26.235Z,2.75
2023-04-06T01:24:06.837Z,3.03
2023-04-06T01:26:45.968Z,2.83
2023-04-06T01:29:13.625Z,2.42
2023-04-06T01:31:41.371Z,3.47
2023-04-06T01:34:08.396Z,2.67
2023-04-06T01:36:35.632Z,2.85
2023-04-06T01:39:18.088Z,2.78
2023-04-06T01:41:48.051Z,3.25
2023-04-06T01:44:19.134Z,2.70
2023-04-06T01:46:51.044Z,2.72
2023-04-06T01:49:19.895Z,2.85
2023-04-06T01:51:52.862Z,2.83
2023-04-06T01:54:19.873Z,3.38
2023-04-06T01:57:06.932Z,3.22
2023-04-06T01:59:56.020Z,3.38
2023-04-06T02:02:30.091Z,3.90
2023-04-06T02:05:03.183Z,3.05
2023-04-06T02:07:30.813Z,2.80
2023-04-06T02:09:57.892Z,3.35
2023-04-06T02:12:35.968Z,3.05
2023-04-06T02:15:04.688Z,3.20
2023-04-06T02:17:31.744Z,3.10
2023-04-06T02:19:58.932Z,3.45
2023-04-06T02:22:25.969Z,3.38
2023-04-06T02:24:52.932Z,2.97
2023-04-06T02:27:19.859Z,3.70
2023-04-06T02:29:47.721Z,3.00
2023-04-06T02:32:18.613Z,3.55
2023-04-06T02:34:46.498Z,3.90
2023-04-06T02:37:14.089Z,2.75
2023-04-06T02:39:41.228Z,3.47
2023-04-06T02:42:09.896Z,2.85
2023-04-06T02:44:36.891Z,3.47
2023-04-06T02:47:03.991Z,3.88
2023-04-06T02:49:31.427Z,4.30
2023-04-06T02:51:59.808Z,3.22
2023-04-06T02:54:30.856Z,3.60
2023-04-06T02:56:58.153Z,4.15
2023-04-06T02:59:33.470Z,3.65
2023-04-06T03:02:08.326Z,2.93
2023-04-06T03:04:36.388Z,3.78
2023-04-06T03:07:06.266Z,3.40
2023-04-06T03:09:39.461Z,3.15
2023-04-06T03:12:09.206Z,3.67
2023-04-06T03:14:51.158Z,3.38
2023-04-06T03:17:18.198Z,3.00
2023-04-06T03:19:45.917Z,3.80
2023-04-06T03:22:14.013Z,3.45
2023-04-06T03:24:41.275Z,3.75
2023-04-06T03:27:08.298Z,3.38
2023-04-06T03:29:36.653Z,2.83
2023-04-06T03:32:05.349Z,3.63
2023-04-06T03:34:40.418Z,3.33
2023-04-06T03:37:10.699Z,3.22
2023-04-06T03:39:44.539Z,3.30
2023-04-06T03:42:16.674Z,3.33
2023-04-06T03:44:50.852Z,3.03
2023-04-06T03:47:18.174Z,3.85
2023-04-06T03:49:45.180Z,3.47
2023-04-06T03:52:14.058Z,4.45
2023-04-06T03:54:41.215Z,3.20
2023-04-06T03:57:11.250Z,4.00
2023-04-06T03:59:38.305Z,3.60
2023-04-06T04:02:05.653Z,3.47
2023-04-06T04:04:32.796Z,3.90
2023-04-06T04:06:59.789Z,3.47
2023-04-06T04:09:29.285Z,3.60
2023-04-06T04:11:56.863Z,4.22
2023-04-06T04:14:24.051Z,3.45
2023-04-06T04:16:51.205Z,3.47
2023-04-06T04:19:18.752Z,3.08
2023-04-06T04:21:47.355Z,5.28
2023-04-06T04:24:18.692Z,2.88
2023-04-06T04:26:45.639Z,4.35
2023-04-06T04:29:12.782Z,4.60
2023-04-06T04:31:39.786Z,4.05
2023-04-06T04:34:14.986Z,3.88
2023-04-06T04:36:45.264Z,3.88
2023-04-06T04:39:18.049Z,3.20
2023-04-06T04:41:50.418Z,3.10
2023-04-06T04:44:17.690Z,3.65
2023-04-06T04:46:44.733Z,4.28
2023-04-06T04:49:14.312Z,4.00
2023-04-06T04:51:42.249Z,3.92
2023-04-06T04:54:12.658Z,4.20
2023-04-06T04:56:41.251Z,3.60
2023-04-06T04:59:27.931Z,3.97
2023-04-06T05:02:01.071Z,3.45
2023-04-06T05:04:40.744Z,3.45
2023-04-06T05:07:11.178Z,3.72
2023-04-06T05:09:40.976Z,3.50
2023-04-06T05:12:08.741Z,4.57
2023-04-06T05:14:43.429Z,4.88
2023-04-06T05:17:15.402Z,3.50
2023-04-06T05:19:42.752Z,3.85
2023-04-06T05:22:10.991Z,4.03
2023-04-06T05:24:41.760Z,5.40
2023-04-06T05:27:09.237Z,4.38
2023-04-06T05:29:36.655Z,4.80
2023-04-06T05:32:04.374Z,4.18
2023-04-06T05:34:32.059Z,4.57
2023-04-06T05:37:03.272Z,4.63
2023-04-06T05:39:30.478Z,4.93
2023-04-06T05:41:57.696Z,5.03
2023-04-06T05:44:48.355Z,5.28
2023-04-06T05:47:17.068Z,5.88
2023-04-06T05:49:47.642Z,5.13
2023-04-06T05:52:22.725Z,5.07
2023-04-06T05:54:51.176Z,5.75
2023-04-06T05:57:18.688Z,5.15
2023-04-06T05:59:46.232Z,6.35
2023-04-06T06:02:15.379Z,6.78
2023-04-06T06:04:46.074Z,6.80
2023-04-06T06:07:16.118Z,6.22
2023-04-06T06:09:48.367Z,6.38
2023-04-06T06:12:23.466Z,8.38
2023-04-06T06:14:51.557Z,8.55
2023-04-06T06:17:19.987Z,8.70
2023-04-06T06:19:49.834Z,8.65
2023-04-06T06:22:17.526Z,9.38
2023-04-06T06:24:47.390Z,9.32
2023-04-06T06:27:17.428Z,10.05
2023-04-06T06:29:47.534Z,8.50
2023-04-06T06:32:15.769Z,8.70
2023-04-06T06:34:43.402Z,9.15
2023-04-06T06:37:11.143Z,8.52
2023-04-06T06:39:38.996Z,8.65
2023-04-06T06:42:06.558Z,8.05
2023-04-06T06:45:01.987Z,9.80
2023-04-06T06:47:29.091Z,8.20
2023-04-06T06:49:56.420Z,8.70
2023-04-06T06:52:25.285Z,8.50
2023-04-06T06:54:52.413Z,9.48
2023-04-06T06:57:20.639Z,8.82
2023-04-06T06:59:48.682Z,8.45
2023-04-06T07:02:16.365Z,9.48
2023-04-06T07:04:43.441Z,8.18
2023-04-06T07:07:10.601Z,10.07
2023-04-06T07:09:38.251Z,9.15
2023-04-06T07:12:07.421Z,9.88
2023-04-06T07:14:34.565Z,8.25
2023-04-06T07:17:01.889Z,9.13
2023-04-06T07:19:29.257Z,9.43
2023-04-06T07:21:57.388Z,8.52
2023-04-06T07:24:24.527Z,8.93
2023-04-06T07:26:51.931Z,10.07
2023-04-06T07:29:19.196Z,9.77
2023-04-06T07:31:46.437Z,8.88
2023-04-06T07:34:14.162Z,10.32
2023-04-06T07:36:41.221Z,9.55
2023-04-06T07:39:08.685Z,8.98
2023-04-06T07:41:36.544Z,9.15
2023-04-06T07:44:04.654Z,8.63
2023-04-06T07:46:32.773Z,9.20
2023-04-06T07:49:04.716Z,9.43
2023-04-06T07:51:37.505Z,9.52
2023-04-06T07:54:04.719Z,8.95
2023-04-06T07:56:31.910Z,8.88
2023-04-06T07:58:59.277Z,8.35
2023-04-06T08:01:28.426Z,8.52
2023-04-06T08:03:56.889Z,8.93
2023-04-06T08:06:24.237Z,9.20
2023-04-06T08:08:51.363Z,9.00
2023-04-06T08:11:18.716Z,8.48
2023-04-06T08:13:45.805Z,9.52
2023-04-06T08:16:13.018Z,9.02
2023-04-06T08:18:40.177Z,8.88
2023-04-06T08:21:07.192Z,9.43
2023-04-06T08:23:34.484Z,8.90
2023-04-06T08:26:01.630Z,9.82
2023-04-06T08:28:28.823Z,9.20
2023-04-06T08:30:56.058Z,9.75
2023-04-06T08:33:23.301Z,9.50
2023-04-06T08:35:50.898Z,10.10
2023-04-06T08:38:18.101Z,11.25
2023-04-06T08:40:45.659Z,10.40
2023-04-06T08:43:15.810Z,10.40
2023-04-06T08:45:44.287Z,9.35
2023-04-06T08:48:13.439Z,9.23
2023-04-06T08:50:41.702Z,9.15
2023-04-06T08:53:09.285Z,10.05
2023-04-06T08:55:37.282Z,10.82
2023-04-06T08:58:08.474Z,10.15
2023-04-06T09:00:39.915Z,9.35
2023-04-06T09:03:08.697Z,9.73
2023-04-06T09:05:36.683Z,10.57
2023-04-06T09:08:04.261Z,10.18
2023-04-06T09:10:31.649Z,9.82
2023-04-06T09:13:07.778Z,9.50
2023-04-06T09:15:35.877Z,10.27
2023-04-06T09:18:03.121Z,10.05
2023-04-06T09:20:30.533Z,9.70
2023-04-06T09:22:57.665Z,9.60
2023-04-06T09:25:32.237Z,9.48
2023-04-06T09:28:05.160Z,9.43
2023-04-06T09:30:33.429Z,9.57
2023-04-06T09:33:01.392Z,10.23
2023-04-06T09:35:31.010Z,10.40
2023-04-06T09:37:58.302Z,9.48
2023-04-06T09:40:26.179Z,9.95
2023-04-06T09:42:55.576Z,10.57
2023-04-06T09:45:22.735Z,9.48
2023-04-06T09:47:52.814Z,10.57
2023-04-06T09:50:21.580Z,10.38
2023-04-06T09:52:52.219Z,10.65
2023-04-06T09:55:31.652Z,11.15
2023-04-06T09:58:08.298Z,11.40
2023-04-06T10:00:50.572Z,10.82
2023-04-06T10:03:46.608Z,10.13
2023-04-06T10:06:18.458Z,12.00
2023-04-06T10:08:48.796Z,12.45
2023-04-06T10:11:17.103Z,11.57
2023-04-06T10:13:46.336Z,12.70
2023-04-06T10:16:16.118Z,11.80
2023-04-06T10:18:59.911Z,10.60
2023-04-06T10:21:29.466Z,13.00
2023-04-06T10:24:02.625Z,13.55
2023-04-06T10:26:29.732Z,11.95
2023-04-06T10:29:04.270Z,13.30
2023-04-06T10:31:31.525Z,12.52
2023-04-06T10:34:01.240Z,11.70
2023-04-06T10:36:33.472Z,11.60
2023-04-06T10:39:04.978Z,12.13
2023-04-06T10:41:44.088Z,11.20
2023-04-06T10:44:25.023Z,12.48
2023-04-06T10:46:58.036Z,11.50
2023-04-06T10:49:27.773Z,11.55
2023-04-06T10:51:57.241Z,11.80
2023-04-06T10:54:27.284Z,12.38
2023-04-06T10:56:54.743Z,11.32
2023-04-06T10:59:23.365Z,11.63
2023-04-06T11:01:50.864Z,11.77
2023-04-06T11:04:19.601Z,11.00
2023-04-06T11:06:51.212Z,10.05
2023-04-06T11:09:30.296Z,10.02
2023-04-06T11:11:58.154Z,9.45
2023-04-06T11:14:25.661Z,9.82
2023-04-06T11:16:52.971Z,10.55
2023-04-06T11:19:20.438Z,8.80
2023-04-06T11:21:49.688Z,8.18
2023-04-06T11:24:20.509Z,8.55
2023-04-06T11:26:54.441Z,8.68
2023-04-06T11:29:33.050Z,9.55
2023-04-06T11:32:03.094Z,8.27
2023-04-06T11:34:36.502Z,9.63
2023-04-06T11:37:09.057Z,8.68
2023-04-06T11:39:51.763Z,8.45
2023-04-06T11:42:30.758Z,9.30
2023-04-06T11:44:59.377Z,9.18
2023-04-06T11:47:45.386Z,8.70
2023-04-06T11:50:15.103Z,9.50
2023-04-06T11:52:43.530Z,9.05
2023-04-06T11:55:19.246Z,9.82
2023-04-06T12:00:14.276Z,9.00
2023-04-06T12:02:47.159Z,8.75
2023-04-06T12:05:14.617Z,8.25
2023-04-06T12:10:16.877Z,9.25
2023-04-06T12:12:44.416Z,9.77
2023-04-06T12:15:11.788Z,8.73
2023-04-06T12:17:39.204Z,8.30
2023-04-06T12:20:22.097Z,9.85
2023-04-06T12:22:52.610Z,9.15
2023-04-06T12:25:19.841Z,9.30
2023-04-06T12:27:47.018Z,9.00
2023-04-06T12:30:14.429Z,8.88
2023-04-06T12:32:41.720Z,8.13
2023-04-06T12:35:10.252Z,7.95
2023-04-06T12:37:38.003Z,8.30
2023-04-06T12:40:06.019Z,7.53
2023-04-06T12:42:33.197Z,8.05
2023-04-06T12:45:00.473Z,7.55
2023-04-06T12:47:27.703Z,8.95
2023-04-06T12:49:55.813Z,8.00
2023-04-06T12:52:22.996Z,7.38
2023-04-06T12:54:51.296Z,7.85
2023-04-06T12:57:18.663Z,7.47
2023-04-06T12:59:46.012Z,8.63
2023-04-06T13:02:13.200Z,8.02
2023-04-06T13:04:40.520Z,7.60
2023-04-06T13:07:07.762Z,7.90
2023-04-06T13:09:35.009Z,8.93
2023-04-06T13:12:02.235Z,8.65
2023-04-06T13:14:29.212Z,7.88
2023-04-06T13:16:59.657Z,7.47
2023-04-06T13:19:27.644Z,7.22
2023-04-06T13:21:54.641Z,6.38
2023-04-06T13:24:22.831Z,6.70
2023-04-06T13:26:52.403Z,5.78
2023-04-06T13:29:19.557Z,5.97
2023-04-06T13:31:46.675Z,6.22
2023-04-06T13:34:13.933Z,6.95
2023-04-06T13:36:42.916Z,6.05
2023-04-06T13:39:10.078Z,5.70
2023-04-06T13:41:37.268Z,6.30
2023-04-06T13:44:04.229Z,5.82
2023-04-06T13:46:31.202Z,6.90
2023-04-06T13:48:58.147Z,5.68
2023-04-06T13:51:25.352Z,6.28
2023-04-06T13:53:54.709Z,6.70
2023-04-06T13:56:22.025Z,5.82
2023-04-06T13:58:49.105Z,5.68
2023-04-06T14:01:16.494Z,6.07
2023-04-06T14:03:46.472Z,5.97
2023-04-06T14:08:44.613Z,5.53
2023-04-06T14:11:14.126Z,5.57
2023-04-06T14:13:42.985Z,5.90
2023-04-06T14:16:10.322Z,5.85
2023-04-06T14:18:38.115Z,6.50
2023-04-06T14:21:05.347Z,7.13
2023-04-06T14:23:33.869Z,5.72
2023-04-06T14:26:09.757Z,6.15
2023-04-06T14:31:16.126Z,5.90
2023-04-06T14:33:44.083Z,6.55
2023-04-06T14:36:12.144Z,6.18
2023-04-06T14:38:40.411Z,6.55
2023-04-06T14:41:09.253Z,5.88
2023-04-06T14:43:36.551Z,6.70
2023-04-06T14:46:03.848Z,5.53
2023-04-06T14:48:30.929Z,6.35
2023-04-06T14:50:58.686Z,6.70
2023-04-06T14:53:26.158Z,6.75
2023-04-06T14:55:53.819Z,5.78
2023-04-06T14:58:22.508Z,7.38
2023-04-06T15:01:03.708Z,5.53
2023-04-06T15:03:31.352Z,6.88
2023-04-06T15:05:58.778Z,6.20
2023-04-06T15:08:26.418Z,6.93
2023-04-06T15:10:55.615Z,6.43
2023-04-06T15:13:22.676Z,5.85
2023-04-06T15:15:52.599Z,6.45
2023-04-06T15:18:21.304Z,7.03
2023-04-06T15:20:48.705Z,6.63
2023-04-06T15:23:16.106Z,6.32
2023-04-06T15:25:43.182Z,7.78
2023-04-06T15:28:10.317Z,11.18
2023-04-06T15:30:37.913Z,8.02
2023-04-06T15:33:07.910Z,7.43
2023-04-06T15:35:40.784Z,6.45
2023-04-06T15:38:11.749Z,7.78
2023-04-06T15:40:47.528Z,7.35
2023-04-06T15:45:42.225Z,6.35
2023-04-06T15:48:09.699Z,5.72
2023-04-06T15:50:38.379Z,6.63
2023-04-06T15:53:05.660Z,7.05
2023-04-06T15:55:32.711Z,6.95
2023-04-06T15:57:59.760Z,7.50
2023-04-06T16:00:28.651Z,6.95
2023-04-06T16:02:57.058Z,7.20
2023-04-06T16:05:24.376Z,7.57
2023-04-06T16:07:51.368Z,7.93
2023-04-06T16:10:18.409Z,7.53
2023-04-06T16:12:45.451Z,7.60
2023-04-06T16:15:12.983Z,7.90
2023-04-06T16:17:40.218Z,7.43
2023-04-06T16:20:08.393Z,8.27
2023-04-06T16:22:36.704Z,7.70
2023-04-06T16:25:04.160Z,7.70
2023-04-06T16:27:31.269Z,7.57
2023-04-06T16:29:59.024Z,7.97
2023-04-06T16:32:26.073Z,7.88
2023-04-06T16:34:53.230Z,8.40
2023-04-06T16:37:20.797Z,9.45
2023-04-06T16:39:48.026Z,8.60
2023-04-06T16:42:17.657Z,7.30
2023-04-06T16:44:44.758Z,8.52
2023-04-06T16:47:11.773Z,9.23
2023-04-06T16:49:38.837Z,8.10
2023-04-06T16:52:06.381Z,7.68
2023-04-06T16:54:34.663Z,9.98
2023-04-06T16:57:04.347Z,8.30
2023-04-06T16:59:33.269Z,10.02
2023-04-06T17:02:00.602Z,8.98
2023-04-06T17:04:28.131Z,7.88
2023-04-06T17:06:55.545Z,9.05
2023-04-06T17:09:24.931Z,8.13
2023-04-06T17:11:52.585Z,9.10
2023-04-06T17:14:19.600Z,8.27
2023-04-06T17:16:46.577Z,9.63
2023-04-06T17:19:13.637Z,8.63
2023-04-06T17:21:42.182Z,9.00
2023-04-06T17:24:09.440Z,9.52
2023-04-06T17:26:36.434Z,9.23
2023-04-06T17:29:03.668Z,10.25
2023-04-06T17:31:31.400Z,9.30
2023-04-06T17:33:59.746Z,10.88
2023-04-06T17:36:28.472Z,9.10
2023-04-06T17:38:55.979Z,8.57
2023-04-06T17:41:24.283Z,9.65
2023-04-06T17:43:51.608Z,10.35
2023-04-06T17:46:20.628Z,10.02
2023-04-06T17:48:47.955Z,10.65
2023-04-06T17:51:18.851Z,10.85
2023-04-06T17:53:46.684Z,10.15
2023-04-06T17:56:14.179Z,10.05
2023-04-06T17:58:41.794Z,10.40
2023-04-06T18:01:11.538Z,9.88
2023-04-06T18:03:38.937Z,9.23
2023-04-06T18:06:16.702Z,9.73
2023-04-06T18:08:44.302Z,9.38
2023-04-06T18:11:17.199Z,9.68
2023-04-06T18:13:47.777Z,10.05
2023-04-06T18:16:17.467Z,10.43
2023-04-06T18:18:44.875Z,10.45
2023-04-06T18:21:12.003Z,11.27
2023-04-06T18:23:39.026Z,9.40
2023-04-06T18:26:06.794Z,9.10
2023-04-06T18:28:34.270Z,10.20
2023-04-06T18:31:02.530Z,9.15
2023-04-06T18:33:29.965Z,8.95
2023-04-06T18:35:57.113Z,9.23
2023-04-06T18:38:24.352Z,9.13
2023-04-06T18:40:52.624Z,10.55
2023-04-06T18:43:19.687Z,8.90
2023-04-06T18:45:46.876Z,7.53
2023-04-06T18:48:14.222Z,8.95
2023-04-06T18:50:41.240Z,9.30
2023-04-06T18:53:08.197Z,9.20
2023-04-06T18:55:36.515Z,9.23
2023-04-06T18:58:03.478Z,8.93
2023-04-06T19:00:30.745Z,9.70
2023-04-06T19:02:58.215Z,9.40
2023-04-06T19:05:25.431Z,9.10
2023-04-06T19:07:52.867Z,9.07
2023-04-06T19:10:20.203Z,10.15
2023-04-06T19:12:48.017Z,9.68
2023-04-06T19:15:15.799Z,8.73
2023-04-06T19:17:43.138Z,9.13
2023-04-06T19:20:10.938Z,8.98
2023-04-06T19:22:38.255Z,9.40
2023-04-06T19:25:07.750Z,9.20
2023-04-06T19:27:35.134Z,9.32
2023-04-06T19:30:02.442Z,9.23
2023-04-06T19:32:30.313Z,9.13
2023-04-06T19:35:01.625Z,8.48
2023-04-06T19:37:29.072Z,7.78
2023-04-06T19:39:56.169Z,8.05
2023-04-06T19:42:24.097Z,9.20
2023-04-06T19:44:51.462Z,7.90
2023-04-06T19:47:19.068Z,9.07
2023-04-06T19:49:46.187Z,8.35
2023-04-06T19:52:13.485Z,8.25
2023-04-06T19:54:40.604Z,8.75
2023-04-06T19:57:08.229Z,9.43
2023-04-06T19:59:35.401Z,9.80
2023-04-06T20:02:02.943Z,9.15
2023-04-06T20:04:30.564Z,9.65
2023-04-06T20:06:57.781Z,9.57
2023-04-06T20:09:25.324Z,10.05
2023-04-06T20:11:54.339Z,9.93
2023-04-06T20:14:22.437Z,10.07
2023-04-06T20:16:50.689Z,9.30
2023-04-06T20:19:18.299Z,10.38
2023-04-06T20:21:45.438Z,11.02
2023-04-06T20:24:12.421Z,11.02
2023-04-06T20:26:39.461Z,11.10
2023-04-06T20:29:06.439Z,11.15
2023-04-06T20:31:33.902Z,11.43
2023-04-06T20:34:01.580Z,10.40
2023-04-06T20:36:32.060Z,11.05
2023-04-06T20:38:59.038Z,11.35
2023-04-06T20:41:26.050Z,12.18
2023-04-06T20:43:53.009Z,12.25
2023-04-06T20:46:20.718Z,11.10
2023-04-06T20:48:47.871Z,10.43
2023-04-06T20:51:20.393Z,11.93
2023-04-06T20:53:48.510Z,10.63
2023-04-06T20:56:15.849Z,12.48
2023-04-06T20:58:42.820Z,11.85
2023-04-06T21:01:17.714Z,12.35
2023-04-06T21:03:45.350Z,11.37
2023-04-06T21:06:12.590Z,10.85
2023-04-06T21:08:39.523Z,11.50
2023-04-06T21:11:06.608Z,11.90
2023-04-06T21:13:34.800Z,11.27
2023-04-06T21:16:02.466Z,13.05
2023-04-06T21:18:32.851Z,11.73
2023-04-06T21:20:59.877Z,12.57
2023-04-06T21:23:27.064Z,12.10
2023-04-06T21:25:57.081Z,13.93
2023-04-06T21:28:25.998Z,12.95
2023-04-06T21:30:54.273Z,13.27
2023-04-06T21:33:21.435Z,14.35
2023-04-06T21:35:48.827Z,13.55
2023-04-06T21:38:16.125Z,13.63
2023-04-06T21:40:43.079Z,14.05
2023-04-06T21:43:10.145Z,13.77
2023-04-06T21:45:37.186Z,13.70
2023-04-06T21:48:04.544Z,13.93
2023-04-06T21:50:31.508Z,15.10
2023-04-06T21:52:58.477Z,14.88
2023-04-06T21:55:25.537Z,15.43
2023-04-06T21:57:52.519Z,14.98
2023-04-06T22:00:20.001Z,15.13
2023-04-06T22:02:47.436Z,16.95
2023-04-06T22:05:14.832Z,15.85
2023-04-06T22:07:42.002Z,14.35
2023-04-06T22:10:09.120Z,14.93
2023-04-06T22:12:36.123Z,15.13
2023-04-06T22:15:03.331Z,12.52
2023-04-06T22:17:31.334Z,14.75
2023-04-06T22:19:58.351Z,15.32
2023-04-06T22:22:25.606Z,15.45
2023-04-06T22:24:52.687Z,14.30
2023-04-06T22:27:19.727Z,14.95
2023-04-06T22:29:46.613Z,14.85
2023-04-06T22:32:13.716Z,14.20
2023-04-06T22:34:41.057Z,15.35
2023-04-06T22:37:08.067Z,14.40
2023-04-06T22:39:35.151Z,15.02
2023-04-06T22:42:02.252Z,14.30
2023-04-06T22:44:29.181Z,14.23
2023-04-06T22:46:56.225Z,13.95
2023-04-06T22:49:23.219Z,14.98
2023-04-06T22:51:50.262Z,14.93
2023-04-06T22:54:17.217Z,14.93
2023-04-06T22:56:44.262Z,13.80
2023-04-06T22:59:11.455Z,14.30
2023-04-06T23:01:38.493Z,14.40
2023-04-06T23:04:06.052Z,13.57
2023-04-06T23:06:33.118Z,13.98
2023-04-06T23:09:00.114Z,14.75
2023-04-06T23:11:27.093Z,13.10
2023-04-06T23:13:54.006Z,13.57
2023-04-06T23:16:21.347Z,14.93
2023-04-06T23:18:48.325Z,14.50
2023-04-06T23:21:15.646Z,14.40
2023-04-06T23:23:42.578Z,15.15
2023-04-06T23:26:09.517Z,14.32
2023-04-06T23:28:36.487Z,13.77
2023-04-06T23:31:03.406Z,14.77
2023-04-06T23:33:30.519Z,13.95
2023-04-06T23:35:57.529Z,13.32
2023-04-06T23:38:24.548Z,12.93
2023-04-06T23:40:51.521Z,13.60
2023-04-06T23:43:18.482Z,13.63
2023-04-06T23:45:45.683Z,14.27
2023-04-06T23:48:12.678Z,16.38
2023-04-06T23:50:39.856Z,15.75
2023-04-06T23:53:07.092Z,15.30
2023-04-06T23:55:34.156Z,13.55
2023-04-06T23:58:01.990Z,14.90
